KFRG/FRG METAR and TAF weather

Enter ICAO airport designator
Station Type Date Time Source
KFRG METAR 2020/07/09 23:53 UTC NOAA

KFRG 092353Z AUTO 16008KT 10SM CLR 27/22 A2998 RMK AO2 SLP153 T02720222 10306 20272 58004


Station Type Date Time Source
KFRG Decoded METAR 2020/07/09 23:53 UTC NOAA

FARMINGDALE REPUBLIC AIRPORT , NY, United States (KFRG) 40-44N 073-25W 21M
Jul 09, 2020 - 07:53 PM EDT / 2020.07.09 2353 UTC
Wind: from the SSE (160 degrees) at 9 MPH (8 KT):0
Visibility: 10 mile(s):0
Sky conditions: clear
Temperature: 81.0 F (27.2 C)
Dew Point: 72.0 F (22.2 C)
Relative Humidity: 74%
Pressure (altimeter): 29.98 in. Hg (1015 hPa)
Pressure tendency: 0.01 inches (0.4 hPa) lower than three hours ago
ob: KFRG 092353Z AUTO 16008KT 10SM CLR 27/22 A2998 RMK AO2 SLP153 T02720222 10306 20272 58004
cycle: 0

Station Type Date Time Source
KFRG TAF UTC NOAA

Error!

Example: see airport list